Tiempo atmosférico en la estación meteorológica de Piloña, Asturias (270 m.)



Fecha
DESCASC
Temp. máxima en grados centígrados (hora)
DESCASC
Temp. mínima en grados centígrados (hora)
DESCASC
Temp. media en grados centígrados
DESCASC
Racha de viento máxima en m/sg (hora)
DESCASC
Velocidad máxima media en intervalos de 10 minutos(hora)
DESCASC
Precipitaciones diarias en mm
DESCASC
Precipitaciones de 00:00 a 06:00 en mm
DESCASC
Precipitaciones de 06:00 a 12:00 en mm
DESCASC
Precipitaciones de 12:00 a 18:00 en mm
DESCASC
Precipitaciones de 18:00 a 24:00 en mm
DESCASC

Gráficas

Temp. máximas Temp. mínimas Temp. medias Precipitaciones Rachas de viento máximas Velocidades máximas media en intervalos de 10 minutos

Datos horarios

Fecha y hora oficial Temperatura (ºC) Velocidad del viento (km/h) Dirección del viento Racha (km/h) Dirección de racha Precipitación (mm) Presión (hPa) Tendencia (hPa) Humedad (%)
2019-07-15 23:00:00 18.4 3 Nordeste 6 Nordeste 0 -- -- 73
2019-07-15 22:00:00 19.6 0 Calma 8 Nordeste 0 -- -- 71
2019-07-15 21:00:00 21 6 Nordeste 15 Este 0 -- -- 66
2019-07-15 20:00:00 23.4 6 Nordeste 17 Norte 0 -- -- 63
2019-07-15 19:00:00 24.4 6 Nordeste 18 Norte 0 -- -- 69
2019-07-15 18:00:00 24.7 9 Nordeste 20 Nordeste 0 -- -- 67
2019-07-15 17:00:00 25.6 7 Norte 23 Nordeste 0 -- -- 61
2019-07-15 16:00:00 24.9 12 Nordeste 25 Nordeste 0 -- -- 62
2019-07-15 15:00:00 25.9 11 Nordeste 24 Nordeste 0 -- -- 57
2019-07-15 14:00:00 26.2 9 Este 22 Este 0 -- -- 51
2019-07-15 13:00:00 25 7 Sudeste 18 Sudeste 0 -- -- 56
2019-07-15 12:00:00 24 5 Sur 12 Sur 0 -- -- 61
2019-07-15 11:00:00 21.5 3 Sudeste 8 Sudeste 0 -- -- 70
2019-07-15 10:00:00 17 0 Calma 5 Norte 0 -- -- 95
2019-07-15 09:00:00 14.2 0 Calma 2 Este 0 -- -- 100
2019-07-15 08:00:00 12.8 0 Calma 3 Norte 0 -- -- 99
2019-07-15 07:00:00 13.2 0 Calma 2 Norte 0 -- -- 99
2019-07-15 06:00:00 13.1 0 Calma 2 Norte 0 -- -- 98
2019-07-15 05:00:00 13.9 0 Calma 3 Norte 0 -- -- 97
2019-07-15 04:00:00 14.9 0 Calma 3 Nordeste 0 -- -- 97
2019-07-15 03:00:00 15.4 0 Calma 2 Este 0 -- -- 96
2019-07-15 02:00:00 16.1 0 Calma 9 Nordeste 0 -- -- 93
2019-07-15 01:00:00 16.9 3 Nordeste 10 Nordeste 0 -- -- 90
2019-07-15 00:00:00 17.2 4 Nordeste 8 Nordeste 0 -- -- 89
2019-07-14 23:00:00 18.8 0 Calma 11 Norte 0 -- -- 78
2019-07-14 22:00:00 19.6 3 Nordeste 14 Norte 0 -- -- 75
2019-07-14 21:00:00 21.6 7 Norte 14 Norte 0 -- -- 66
2019-07-14 20:00:00 24 4 Nordeste 14 Norte 0 -- -- 65
2019-07-14 19:00:00 24.2 8 Nordeste 13 Nordeste 0 -- -- 67
2019-07-14 18:00:00 23.8 9 Nordeste 20 Nordeste 0 -- -- 65
2019-07-14 17:00:00 23.9 10 Nordeste 22 Nordeste 0 -- -- 65
2019-07-14 16:00:00 24.1 12 Nordeste 25 Nordeste 0 -- -- 72
2019-07-14 15:00:00 23.8 10 Norte 20 Nordeste 0 -- -- 76
2019-07-14 14:00:00 24.3 9 Nordeste 20 Nordeste 0 -- -- 74
2019-07-14 13:00:00 23.9 5 Nordeste 14 Nordeste 0 -- -- 73
2019-07-14 12:00:00 22.8 3 Norte 10 Noroeste 0 -- -- 76
2019-07-14 11:00:00 22.9 3 Sudeste 11 Sur 0 -- -- 76
2019-07-14 10:00:00 20.4 0 Calma 6 Sudoeste 0 -- -- 88
2019-07-14 09:00:00 17.7 0 Calma 4 Norte 0 -- -- 99
2019-07-14 08:00:00 16.4 0 Calma 3 Norte 0 -- -- 99
2019-07-14 07:00:00 16 3 Nordeste 6 Nordeste 0 -- -- 98
2019-07-14 06:00:00 16.4 2 Nordeste 8 Norte 0 -- -- 98
2019-07-14 05:00:00 17 0 Calma 6 Nordeste 0 -- -- 98
2019-07-14 04:00:00 17.3 0 Calma 4 Nordeste 0 -- -- 97
2019-07-14 03:00:00 17.9 0 Calma 5 Nordeste 0 -- -- 97
2019-07-14 02:00:00 17.9 3 Nordeste 5 Nordeste 0 -- -- 96
2019-07-14 01:00:00 18.1 0 Calma 10 Este 0 -- -- 97
2019-07-14 00:00:00 18.1 3 Este 13 Nordeste 0.2 -- -- 95
2019-07-13 23:00:00 18.5 3 Norte 8 Norte 0 -- -- 95
2019-07-13 22:00:00 18.9 0 Calma 6 Norte 0 -- -- 95
2019-07-13 21:00:00 19.3 2 Nordeste 9 Nordeste 0.8 -- -- 95
2019-07-13 20:00:00 19.4 2 Norte 14 Este 0.6 -- -- 93
2019-07-13 19:00:00 20.2 6 Nordeste 19 Nordeste 0 -- -- 87
2019-07-13 18:00:00 21 9 Nordeste 24 Nordeste 0 -- -- 83
2019-07-13 17:00:00 21.7 11 Nordeste 27 Nordeste 0 -- -- 81
2019-07-13 16:00:00 24 12 Norte 25 Nordeste 0 -- -- 74
2019-07-13 15:00:00 24.6 9 Este 18 Sudeste 0 -- -- 65
2019-07-13 14:00:00 24.4 10 Este 21 Sudeste 0 -- -- 62
2019-07-13 13:00:00 23.8 9 Este 22 Sudeste 0 -- -- 64
2019-07-13 12:00:00 23.1 10 Este 21 Este 0 -- -- 65
2019-07-13 11:00:00 22.7 9 Este 19 Este 0 -- -- 70
2019-07-13 10:00:00 21 6 Este 14 Sudeste 0 -- -- 70
2019-07-13 09:00:00 19.1 0 Calma 5 Nordeste 0 -- -- 79
2019-07-13 08:00:00 16.8 4 Nordeste 10 Nordeste 0 -- -- 91
2019-07-13 07:00:00 15.9 4 Nordeste 8 Nordeste 0 -- -- 94
2019-07-13 06:00:00 16.3 5 Este 13 Este 0 -- -- 93
2019-07-13 05:00:00 16.8 4 Este 16 Este 0 -- -- 92
2019-07-13 04:00:00 17.2 5 Este 11 Este 0 -- -- 89
2019-07-13 03:00:00 17.5 4 Este 9 Este 0 -- -- 85
2019-07-13 02:00:00 17.3 3 Nordeste 6 Nordeste 0 -- -- 89
2019-07-13 01:00:00 17.7 4 Nordeste 7 Nordeste 0 -- -- 88
2019-07-13 00:00:00 17.7 2 Nordeste 5 Nordeste 0 -- -- 91
2019-07-12 23:00:00 18 4 Nordeste 7 Nordeste 0 -- -- 89
2019-07-12 22:00:00 19.2 4 Nordeste 11 Norte 0 -- -- 84
2019-07-12 21:00:00 20.4 5 Norte 16 Nordeste 0 -- -- 78
2019-07-12 20:00:00 22.3 8 Norte 20 Norte 0 -- -- 73
2019-07-12 19:00:00 23.5 9 Norte 20 Norte 0 -- -- 68
2019-07-12 18:00:00 24.4 12 Norte 24 Nordeste 0 -- -- 69
2019-07-12 17:00:00 26 8 Norte 19 Nordeste 0 -- -- 66
2019-07-12 16:00:00 26 7 Nordeste 16 Nordeste 0 -- -- 64
2019-07-12 15:00:00 26 8 Nordeste 20 Nordeste 0 -- -- 68
2019-07-12 14:00:00 25.8 7 Nordeste 18 Nordeste 0 -- -- 71
2019-07-12 13:00:00 25.6 3 Este 9 Sudeste 0 -- -- 68
2019-07-12 12:00:00 23.8 6 Sudeste 13 Sudeste 0 -- -- 66
2019-07-12 11:00:00 22.1 4 Sudeste 14 Este 0 -- -- 74
2019-07-12 10:00:00 19.6 2 Sudeste 7 Sur 0 -- -- 86
2019-07-12 09:00:00 18.2 3 Este 8 Sudeste 0 -- -- 91
2019-07-12 08:00:00 17.5 2 Este 6 Este 0 -- -- 99
2019-07-12 07:00:00 17.1 0 Calma 2 Este 0 -- -- 99
2019-07-12 06:00:00 17.2 0 Calma 3 Nordeste 0 -- -- 98
2019-07-12 05:00:00 17.1 0 Calma 3 Este 0 -- -- 97
2019-07-12 04:00:00 17.1 0 Calma 2 Este 0 -- -- 97
2019-07-12 03:00:00 17 0 Calma 6 Este 0 -- -- 96
2019-07-12 02:00:00 16.9 3 Este 6 Este 0 -- -- 95
2019-07-12 01:00:00 17.4 0 Calma 5 Nordeste 0 -- -- 96
2019-07-12 00:00:00 17.8 5 Nordeste 9 Nordeste 0 -- -- 95
2019-07-11 23:00:00 18.6 6 Nordeste 13 Nordeste 0 -- -- 93
2019-07-11 22:00:00 19.9 7 Nordeste 15 Nordeste 0 -- -- 87
2019-07-11 21:00:00 21.8 7 Norte 15 Norte 0 -- -- 77
2019-07-11 20:00:00 23.9 7 Nordeste 16 Norte 0 -- -- 63
2019-07-11 19:00:00 25.1 8 Norte 17 Norte 0 -- -- 61
2019-07-11 18:00:00 26 7 Norte 16 Nordeste 0 -- -- 60
2019-07-11 17:00:00 25.4 11 Nordeste 20 Nordeste 0 -- -- 62
2019-07-11 16:00:00 26.2 8 Nordeste 18 Nordeste 0 -- -- 62
2019-07-11 15:00:00 25.5 10 Nordeste 20 Nordeste 0 -- -- 67
2019-07-11 14:00:00 25.4 11 Nordeste 18 Nordeste 0 -- -- 68
2019-07-11 13:00:00 25.3 10 Nordeste 18 Nordeste 0 -- -- 72
2019-07-11 12:00:00 24.5 6 Nordeste 15 Nordeste 0 -- -- 74
2019-07-11 11:00:00 22.3 4 Sudeste 9 Sudeste 0 -- -- 78
2019-07-11 10:00:00 18.9 3 Noroeste 6 Noroeste 0 -- -- 88
2019-07-11 09:00:00 15.8 0 Calma 3 Noroeste 0 -- -- 94
2019-07-11 08:00:00 13.8 0 Calma 2 Noroeste 0 -- -- 99
2019-07-11 07:00:00 13.2 0 Calma 3 Noroeste 0 -- -- 98
2019-07-11 06:00:00 13.6 0 Calma 2 Norte 0 -- -- 98
2019-07-11 05:00:00 13.9 0 Calma 2 Norte 0 -- -- 98
2019-07-11 04:00:00 14.3 0 Calma 3 Noroeste 0 -- -- 97
2019-07-11 03:00:00 14.6 0 Calma 2 Noroeste 0 -- -- 96
2019-07-11 02:00:00 15 0 Calma 4 Este 0 -- -- 95
2019-07-11 01:00:00 15.7 2 Este 4 Sudeste 0 -- -- 93
2019-07-11 00:00:00 16.6 0 Calma 4 Este 0 -- -- 88
2019-07-10 23:00:00 17.6 4 Este 9 Este 0 -- -- 84
2019-07-10 22:00:00 18.6 7 Nordeste 17 Nordeste 0 -- -- 82
2019-07-10 21:00:00 20.8 8 Norte 19 Norte 0 -- -- 74
2019-07-10 20:00:00 24.2 4 Norte 15 Norte 0 -- -- 66
2019-07-10 19:00:00 25.5 6 Este 12 Nordeste 0 -- -- 60
2019-07-10 18:00:00 25.7 7 Nordeste 14 Nordeste 0 -- -- 63
2019-07-10 17:00:00 25.6 7 Nordeste 18 Este 0 -- -- 63
2019-07-10 16:00:00 24.9 6 Nordeste 22 Nordeste 0 -- -- 67
2019-07-10 15:00:00 24.5 13 Nordeste 24 Nordeste 0 -- -- 62
2019-07-10 14:00:00 25.4 9 Sudeste 17 Sudeste 0 -- -- 52
2019-07-10 13:00:00 24.3 7 Sudeste 15 Sudeste 0 -- -- 56
2019-07-10 12:00:00 22 8 Sudeste 16 Sudeste 0 -- -- 61
2019-07-10 11:00:00 18.7 4 Sudoeste 6 Sudoeste 0 -- -- 87
2019-07-10 10:00:00 16.6 3 Sur 9 Sur 0 -- -- 93
2019-07-10 09:00:00 15.2 4 Este 9 Sudeste 0 -- -- 100
2019-07-10 08:00:00 14.7 3 Sudeste 9 Sudeste 0 -- -- 100
2019-07-10 07:00:00 14.5 4 Sudeste 12 Sudeste 0 -- -- 100
2019-07-10 06:00:00 14.5 4 Este 9 Este 0 -- -- 100
2019-07-10 05:00:00 14.5 3 Norte 8 Este 0 -- -- 100
2019-07-10 04:00:00 14.5 2 Norte 4 Norte 0 -- -- 99
2019-07-10 03:00:00 14.3 0 Calma 3 Norte 0 -- -- 98
2019-07-10 02:00:00 14.5 2 Norte 4 Norte 0 -- -- 97
2019-07-10 01:00:00 15.4 2 Noroeste 10 Este 0 -- -- 96
2019-07-10 00:00:00 15.7 3 Nordeste 6 Nordeste 0 -- -- 96
2019-07-09 23:00:00 16.5 4 Nordeste 11 Nordeste 0 -- -- 93
2019-07-09 22:00:00 17.4 5 Norte 16 Norte 0 -- -- 89
2019-07-09 21:00:00 19.3 6 Norte 15 Nordeste 0 -- -- 80
2019-07-09 20:00:00 21.4 8 Nordeste 17 Nordeste 0 -- -- 71
2019-07-09 19:00:00 22.5 9 Nordeste 20 Nordeste 0 -- -- 68
2019-07-09 18:00:00 23.4 9 Nordeste 19 Nordeste 0 -- -- 68
2019-07-09 17:00:00 24.6 8 Nordeste 22 Nordeste 0 -- -- 64
2019-07-09 16:00:00 24.9 6 Nordeste 16 Nordeste 0 -- -- 64
2019-07-09 15:00:00 24.6 5 Nordeste 15 Norte 0 -- -- 69
2019-07-09 14:00:00 24.4 8 Norte 18 Norte 0 -- -- 66
2019-07-09 13:00:00 23.2 5 Nordeste 14 Noroeste 0 -- -- 68
2019-07-09 12:00:00 22.9 4 Noroeste 13 Oeste 0 -- -- 67
2019-07-09 11:00:00 21.6 5 Noroeste 14 Noroeste 0 -- -- 72
2019-07-09 10:00:00 19.7 5 Noroeste 13 Noroeste 0 -- -- 79
2019-07-09 09:00:00 17.9 0 Calma 4 Oeste 0 -- -- 86
2019-07-09 08:00:00 16 2 Oeste 8 Noroeste 0 -- -- 93
2019-07-09 07:00:00 15.5 0 Calma 8 Oeste 0 -- -- 94
2019-07-09 06:00:00 16.1 3 Noroeste 9 Oeste 0 -- -- 93
2019-07-09 05:00:00 16.1 3 Noroeste 8 Oeste 0 -- -- 92
2019-07-09 04:00:00 16.2 3 Noroeste 8 Oeste 0 -- -- 92
2019-07-09 03:00:00 16.6 3 Oeste 9 Oeste 0 -- -- 96
2019-07-09 02:00:00 17.1 2 Noroeste 6 Noroeste 0 -- -- 95
2019-07-09 01:00:00 17.2 0 Calma -- -- 0 -- -- 96
2019-07-09 00:00:00 17.3 0 Calma 4 Oeste 0 -- -- 96
2019-07-08 23:00:00 17.5 0 Calma 13 Norte 0 -- -- 93
2019-07-08 22:00:00 18.3 5 Norte 11 Nordeste 0 -- -- 92
2019-07-08 21:00:00 19.1 5 Norte 12 Nordeste 0 -- -- 90
2019-07-08 20:00:00 19.5 4 Norte 17 Nordeste 0 -- -- 89
2019-07-08 19:00:00 19.9 8 Nordeste 21 Norte 0 -- -- 89
2019-07-08 18:00:00 20.6 12 Nordeste 21 Nordeste 0 -- -- 85
2019-07-08 17:00:00 22.7 7 Nordeste 18 Norte 0 -- -- 82
2019-07-08 16:00:00 21.9 5 Sudeste 13 Sudeste 0 -- -- 82
2019-07-08 15:00:00 21 7 Este 13 Este 0 -- -- 86
2019-07-08 14:00:00 19.2 4 Sudeste 8 Sur 0 -- -- 91
2019-07-08 13:00:00 18.2 0 Calma 5 Nordeste 0 -- -- 97
2019-07-08 12:00:00 17.3 3 Noroeste 5 Este 0.2 -- -- 99
2019-07-08 11:00:00 16.9 0 Calma 5 Este 0.2 -- -- 99
2019-07-08 10:00:00 16.8 0 Calma 6 Nordeste 0.2 -- -- 99
2019-07-08 09:00:00 16.5 0 Calma 4 Nordeste 0.2 -- -- 99
2019-07-08 08:00:00 16.4 0 Calma 4 Nordeste 0.2 -- -- 99
2019-07-08 07:00:00 16.3 0 Calma 5 Norte 0.2 -- -- 99
2019-07-08 06:00:00 16.3 0 Calma 3 Nordeste 0.2 -- -- 99
2019-07-08 05:00:00 16.2 0 Calma 3 Nordeste 0 -- -- 99
2019-07-08 04:00:00 16.2 0 Calma 3 Nordeste 0 -- -- 99
2019-07-08 03:00:00 16.3 0 Calma 3 Noroeste 0 -- -- 99
2019-07-08 02:00:00 16.3 0 Calma 5 Noroeste 0 -- -- 98
2019-07-08 01:00:00 16.4 0 Calma 3 Noroeste 0 -- -- 97
2019-07-08 00:00:00 16.4 0 Calma 5 Nordeste 0 -- -- 96
2019-07-07 23:00:00 16.4 2 Nordeste 9 Nordeste 0 -- -- 95
2019-07-07 22:00:00 16.6 3 Nordeste 10 Norte 0 -- -- 95
2019-07-07 21:00:00 16.9 5 Nordeste 14 Nordeste 0 -- -- 93
2019-07-07 20:00:00 17.3 6 Nordeste 13 Nordeste 0 -- -- 90
2019-07-07 19:00:00 17.7 5 Norte 16 Nordeste 0 -- -- 89
2019-07-07 18:00:00 18.4 10 Nordeste 23 Nordeste 0 -- -- 86
2019-07-07 17:00:00 20.1 12 Nordeste 26 Norte 0 -- -- 81
2019-07-07 16:00:00 22.4 9 Norte 22 Nordeste 0 -- -- 74
2019-07-07 15:00:00 22.6 6 Norte 14 Norte 0 -- -- 78
2019-07-07 14:00:00 21 3 Este 12 Este 0 -- -- 76
2019-07-07 13:00:00 19.9 3 Sudeste 8 Sudeste 0 -- -- 83
2019-07-07 12:00:00 18.4 3 Sudeste 10 Nordeste 0 -- -- 88
2019-07-07 11:00:00 17.6 4 Este 11 Este 0 -- -- 91
2019-07-07 10:00:00 17 3 Sudoeste 8 Sudeste 0 -- -- 94
2019-07-07 09:00:00 16 0 Calma 6 Este 0 -- -- 98
2019-07-07 08:00:00 15.9 3 Este 6 Este 0 -- -- 99
2019-07-07 07:00:00 15.8 2 Nordeste 8 Este 0 -- -- 99
2019-07-07 06:00:00 16.1 2 Sudeste 6 Sudeste 0 -- -- 98
2019-07-07 05:00:00 16.3 0 Calma 3 Este 0 -- -- 98
2019-07-07 04:00:00 16.2 0 Calma 2 Este 0 -- -- 98
2019-07-07 03:00:00 16.2 0 Calma 7 Norte 0 -- -- 98
2019-07-07 02:00:00 15.9 0 Calma 12 Norte 0 -- -- 98
2019-07-07 01:00:00 15.9 0 Calma 5 Norte 0 -- -- 97
2019-07-07 00:00:00 16.2 0 Calma 8 Nordeste 0 -- -- 95
2019-07-06 23:00:00 17.4 2 Nordeste 6 Nordeste 0 -- -- 90
2019-07-06 22:00:00 18.9 4 Nordeste 7 Nordeste 0 -- -- 88
2019-07-06 21:00:00 20.3 3 Este 9 Nordeste 0 -- -- 82
2019-07-06 20:00:00 20.1 3 Este 11 Nordeste 0 -- -- 82
2019-07-06 19:00:00 20 8 Nordeste 15 Nordeste 0 -- -- 83
2019-07-06 18:00:00 20.6 8 Nordeste 21 Nordeste 0 -- -- 83
2019-07-06 17:00:00 21.8 9 Norte 22 Norte 0 -- -- 78
2019-07-06 16:00:00 22.8 7 Nordeste 24 Nordeste 0 -- -- 77
2019-07-06 15:00:00 22.9 9 Nordeste 20 Nordeste 0 -- -- 77
2019-07-06 14:00:00 23.4 12 Nordeste 21 Nordeste 0 -- -- 77
2019-07-06 13:00:00 22.9 10 Nordeste 18 Norte 0 -- -- 75
2019-07-06 12:00:00 23.2 4 Norte 10 Oeste 0 -- -- 71
2019-07-06 11:00:00 22.1 3 Este 6 Nordeste 0 -- -- 71
2019-07-06 10:00:00 19.5 3 Sudeste 7 Este 0 -- -- 81
2019-07-06 09:00:00 18.2 0 Calma 4 Nordeste 0 -- -- 88
2019-07-06 08:00:00 17 0 Calma 5 Norte 0 -- -- 92
2019-07-06 07:00:00 17.3 0 Calma 3 Oeste 0 -- -- 93
2019-07-06 06:00:00 17.5 0 Calma 3 Noroeste 0 -- -- 92
2019-07-06 05:00:00 17.7 0 Calma 3 Noroeste 0 -- -- 90
2019-07-06 04:00:00 17.8 0 Calma 4 Oeste 0 -- -- 91
2019-07-06 03:00:00 17.9 0 Calma 11 Noroeste 0 -- -- 87
2019-07-06 02:00:00 18 2 Noroeste 12 Oeste 0 -- -- 88
2019-07-06 01:00:00 18 5 Oeste 10 Sudoeste 0 -- -- 93
2019-07-06 00:00:00 18.3 2 Norte 11 Norte 0 -- -- 90
2019-07-05 23:00:00 18.4 6 Nordeste 13 Norte 0 -- -- 89
2019-07-05 22:00:00 19 6 Nordeste 18 Nordeste 0 -- -- 87
2019-07-05 21:00:00 20.1 8 Nordeste 18 Nordeste 0 -- -- 85
2019-07-05 20:00:00 21.9 8 Norte 24 Norte 0 -- -- 81
2019-07-05 19:00:00 23.5 9 Norte 19 Nordeste 0 -- -- 75
2019-07-05 18:00:00 24.3 9 Nordeste 22 Nordeste 0 -- -- 72
2019-07-05 17:00:00 24.8 12 Nordeste 24 Norte 0 -- -- 69
2019-07-05 16:00:00 26 9 Norte 19 Norte 0 -- -- 65
2019-07-05 15:00:00 26.4 9 Nordeste 16 Nordeste 0 -- -- 62
2019-07-05 14:00:00 26.2 9 Nordeste 24 Sudeste 0 -- -- 67
2019-07-05 13:00:00 25.4 12 Sudeste 24 Este 0 -- -- 70
2019-07-05 12:00:00 24.4 8 Sudeste 17 Sudeste 0 -- -- 76
2019-07-05 11:00:00 23.1 11 Este 20 Este 0 -- -- 78
2019-07-05 10:00:00 21.2 5 Sur 10 Sur 0 -- -- 84
2019-07-05 09:00:00 19.7 2 Sudeste 8 Este 0 -- -- 88
2019-07-05 08:00:00 17.7 3 Nordeste 5 Este 0 -- -- 97
2019-07-05 07:00:00 17.5 2 Sudoeste 6 Nordeste 0 -- -- 95
2019-07-05 06:00:00 17.4 2 Nordeste 10 Oeste 0 -- -- 98
2019-07-05 05:00:00 17.3 4 Noroeste 10 Oeste 0 -- -- 97
2019-07-05 04:00:00 17.8 0 Calma 11 Oeste 0 -- -- 95
2019-07-05 03:00:00 18.7 2 Noroeste 11 Noroeste 0 -- -- 94
2019-07-05 02:00:00 18.7 7 Oeste 15 Oeste 0 -- -- 96
2019-07-05 01:00:00 19 3 Noroeste 14 Nordeste 0.2 -- -- 95
2019-07-05 00:00:00 19.8 4 Oeste 11 Oeste 0 -- -- 96
2019-07-04 23:00:00 20.3 4 Oeste 9 Sudoeste 0 -- -- 95
2019-07-04 22:00:00 22.4 2 Sudoeste 23 Este 0 -- -- 91
2019-07-04 21:00:00 23.7 10 Este 21 Sudeste 0.2 -- -- 84
2019-07-04 20:00:00 23.4 10 Nordeste 18 Nordeste 0.4 -- -- 92
2019-07-04 19:00:00 26.9 5 Norte 15 Norte 0 -- -- 79
2019-07-04 18:00:00 26.6 5 Nordeste 15 Este 0 -- -- 73
2019-07-04 17:00:00 27 7 Este 14 Este 0 -- -- 76
2019-07-04 16:00:00 25 3 Norte 8 Sudoeste 0 -- -- 77
2019-07-04 15:00:00 24.1 4 Este 11 Sudeste 0 -- -- 80
2019-07-04 14:00:00 22.8 2 Este 13 Este 0 -- -- 85
2019-07-04 13:00:00 23.3 5 Este 16 Este 0 -- -- 80
2019-07-04 12:00:00 23.4 6 Sudeste 13 Este 0 -- -- 80
2019-07-04 11:00:00 20.7 4 Sudeste 8 Este 0 -- -- 88
2019-07-04 10:00:00 17.9 2 Sudoeste 5 Sudoeste 0 -- -- 100
2019-07-04 09:00:00 16.6 2 Oeste 5 Oeste 0 -- -- 100
2019-07-04 08:00:00 16.2 0 Calma 4 Sur 0 -- -- 100
2019-07-04 07:00:00 16.5 0 Calma 4 Oeste 0 -- -- 100
2019-07-04 06:00:00 16.7 0 Calma 4 Sur 0 -- -- 100
2019-07-04 05:00:00 16.5 0 Calma 8 Nordeste 0 -- -- 100
2019-07-04 04:00:00 16.6 3 Norte 11 Nordeste 0 -- -- 99
2019-07-04 03:00:00 17.1 3 Sudeste 6 Sudeste 0 -- -- 98
2019-07-04 02:00:00 17.7 3 Norte 10 Este 0 -- -- 97
2019-07-04 01:00:00 17.8 6 Este 18 Sur 0 -- -- 96
2019-07-04 00:00:00 17.6 4 Sudeste 15 Este 0 -- -- 97
2019-07-03 23:00:00 17.8 4 Este 14 Nordeste 0 -- -- 98
2019-07-03 22:00:00 18.1 3 Sudoeste 7 Este 0.4 -- -- 98
2019-07-03 21:00:00 18.3 2 Norte 13 Nordeste 0.2 -- -- 96
2019-07-03 20:00:00 18.8 2 Nordeste 18 Este 0 -- -- 93
2019-07-03 19:00:00 20.3 6 Nordeste 13 Nordeste 0 -- -- 87
2019-07-03 18:00:00 20.4 7 Nordeste 16 Nordeste 0 -- -- 86
2019-07-03 17:00:00 21.1 9 Nordeste 19 Nordeste 0 -- -- 84
2019-07-03 16:00:00 21.6 8 Nordeste 18 Nordeste 0 -- -- 84
2019-07-03 15:00:00 21 10 Nordeste 17 Norte 0 -- -- 85
2019-07-03 14:00:00 21 6 Nordeste 14 Norte 0 -- -- 86
2019-07-03 13:00:00 19.3 5 Nordeste 12 Nordeste 2.6 -- -- 92
2019-07-03 12:00:00 19.5 7 Este 14 Este 0 -- -- 85
2019-07-03 11:00:00 19 5 Este 11 Este 0 -- -- 86
2019-07-03 10:00:00 17.8 4 Este 10 Este 0 -- -- 90
2019-07-03 09:00:00 16.6 0 Calma 10 Este 0 -- -- 95
2019-07-03 08:00:00 16 4 Este 11 Este 0 -- -- 97
2019-07-03 07:00:00 16 4 Este 10 Este 0 -- -- 97
2019-07-03 06:00:00 16 6 Este 10 Este 0 -- -- 97
2019-07-03 05:00:00 16.1 0 Calma 9 Este 0 -- -- 96
2019-07-03 04:00:00 16.1 3 Este 5 Este 0 -- -- 97
2019-07-03 03:00:00 16.2 0 Calma 6 Nordeste 0 -- -- 96
2019-07-03 02:00:00 16.2 4 Nordeste 9 Norte 0 -- -- 96
2019-07-03 01:00:00 16.6 0 Calma 6 Este 0 -- -- 96
2019-07-03 00:00:00 16.6 3 Sudeste 9 Sudeste 0 -- -- 96
2019-07-02 23:00:00 16.7 0 Calma 8 Nordeste 0 -- -- 95
2019-07-02 22:00:00 17 3 Nordeste 11 Norte 0 -- -- 93
2019-07-02 21:00:00 17.3 5 Norte 15 Este 0 -- -- 91
2019-07-02 20:00:00 18.2 6 Nordeste 12 Nordeste 0 -- -- 88
2019-07-02 19:00:00 17.9 7 Nordeste 13 Nordeste 0 -- -- 90
2019-07-02 18:00:00 18.5 7 Nordeste 17 Norte 0 -- -- 87
2019-07-02 17:00:00 19.2 5 Este 14 Nordeste 0 -- -- 83
2019-07-02 16:00:00 18.3 8 Nordeste 17 Nordeste 0 -- -- 86
2019-07-02 15:00:00 17.5 8 Nordeste 16 Norte 0 -- -- 91
2019-07-02 14:00:00 17.9 7 Nordeste 14 Nordeste 0 -- -- 92
2019-07-02 13:00:00 17.1 6 Nordeste 17 Nordeste 0 -- -- 94
2019-07-02 12:00:00 17.2 7 Nordeste 15 Nordeste 0 -- -- 93
2019-07-02 11:00:00 16.6 2 Este 4 Este 0 -- -- 97
2019-07-02 10:00:00 15.9 2 Este 4 Este 0 -- -- 99
2019-07-02 09:00:00 15.4 0 Calma 10 Nordeste 0 -- -- 99
2019-07-02 08:00:00 15.3 3 Este 7 Este 0.2 -- -- 99
2019-07-02 07:00:00 15.3 0 Calma 4 Este 0.4 -- -- 99
2019-07-02 06:00:00 15.4 0 Calma 6 Este 0.2 -- -- 99
2019-07-02 05:00:00 15.4 0 Calma 5 Este 0.2 -- -- 98
2019-07-02 04:00:00 15.5 3 Este 8 Este 0.4 -- -- 98
2019-07-02 03:00:00 15.7 0 Calma 5 Este 1.4 -- -- 99
2019-07-02 02:00:00 15.7 3 Este 6 Este 2 -- -- 98
2019-07-02 01:00:00 15.8 2 Este 4 Este 0.4 -- -- 97
2019-07-02 00:00:00 15.8 0 Calma 8 Nordeste 0 -- -- 96
2019-07-01 23:00:00 16.3 6 Nordeste 12 Nordeste 0 -- -- 93
2019-07-01 22:00:00 17 3 Nordeste 13 Nordeste 0 -- -- 89
2019-07-01 21:00:00 17.2 7 Nordeste 16 Este 0 -- -- 87
2019-07-01 20:00:00 17.6 8 Nordeste 14 Nordeste 0 -- -- 82
2019-07-01 19:00:00 18.3 6 Nordeste 19 Norte 0 -- -- 81
2019-07-01 18:00:00 18.2 8 Nordeste 18 Este 0 -- -- 81
2019-07-01 17:00:00 18.3 9 Nordeste 21 Nordeste 0 -- -- 82
2019-07-01 16:00:00 19.3 11 Nordeste 21 Nordeste 0 -- -- 79
2019-07-01 15:00:00 19.9 6 Nordeste 17 Este 0 -- -- 77
2019-07-01 14:00:00 18.8 5 Sudeste 10 Este 0 -- -- 84
2019-07-01 13:00:00 17.8 2 Sudeste 6 Sudeste 0 -- -- 92
2019-07-01 12:00:00 16.4 0 Calma 5 Sur 0.2 -- -- 96
2019-07-01 11:00:00 16.1 0 Calma 4 Sudeste 0.2 -- -- 97
2019-07-01 10:00:00 16 2 Sudeste 7 Sudeste 0 -- -- 96
2019-07-01 09:00:00 15.8 4 Nordeste 10 Nordeste 0 -- -- 94
2019-07-01 08:00:00 15.7 6 Este 12 Nordeste 0 -- -- 95
2019-07-01 07:00:00 15.7 2 Nordeste 11 Nordeste 0 -- -- 96
2019-07-01 06:00:00 15.7 4 Nordeste 10 Norte 0 -- -- 97
2019-07-01 05:00:00 15.9 0 Calma 4 Nordeste 0 -- -- 97
2019-07-01 04:00:00 16.2 2 Nordeste 4 Nordeste 0 -- -- 95
2019-07-01 03:00:00 16.4 3 Nordeste 13 Nordeste 0 -- -- 94
2019-07-01 02:00:00 16.4 4 Nordeste 8 Nordeste 0 -- -- 95
2019-07-01 01:00:00 16.4 0 Calma 5 Nordeste 0 -- -- 96
2019-07-01 00:00:00 16.6 0 Calma 4 Norte 0 -- -- 97
2019-06-30 23:00:00 16.8 0 Calma 3 Nordeste 0 -- -- 96
2019-06-30 22:00:00 16.9 2 Nordeste 6 Nordeste 0 -- -- 94
2019-06-30 21:00:00 17.1 3 Nordeste 8 Nordeste 0 -- -- 92
2019-06-30 20:00:00 17.2 3 Nordeste 8 Nordeste 0 -- -- 93
2019-06-30 19:00:00 17.2 3 Nordeste 12 Nordeste 0 -- -- 93
2019-06-30 18:00:00 17.7 5 Nordeste 17 Norte 0 -- -- 89
2019-06-30 17:00:00 17.9 8 Norte 16 Norte 0 -- -- 88
2019-06-30 16:00:00 19 8 Norte 17 Nordeste 0 -- -- 85
2019-06-30 15:00:00 20.1 6 Nordeste 14 Norte 0 -- -- 82
2019-06-30 14:00:00 20.9 7 Nordeste 16 Nordeste 0 -- -- 78
2019-06-30 13:00:00 20.2 6 Nordeste 15 Nordeste 0 -- -- 77
2019-06-30 12:00:00 21 7 Nordeste 16 Este 0 -- -- 76
2019-06-30 11:00:00 19.6 7 Este 18 Este 0 -- -- 78
2019-06-30 10:00:00 18.7 7 Este 18 Este 0 -- -- 79
2019-06-30 09:00:00 17.4 6 Este 12 Este 0 -- -- 90
2019-06-30 08:00:00 15.8 2 Este 7 Nordeste 0 -- -- 99
2019-06-30 07:00:00 15.6 3 Norte 10 Nordeste 0 -- -- 98
2019-06-30 06:00:00 15.8 5 Nordeste 9 Nordeste 0 -- -- 99
2019-06-30 05:00:00 15.9 5 Este 10 Este 0 -- -- 99
2019-06-30 04:00:00 16 4 Este 9 Este 0 -- -- 99
2019-06-30 03:00:00 16.2 0 Calma 4 Este 0 -- -- 98
2019-06-30 02:00:00 16.3 0 Calma 4 Este 0 -- -- 97
2019-06-30 01:00:00 16.4 2 Nordeste 9 Nordeste 0 -- -- 96
2019-06-30 00:00:00 16.7 4 Nordeste 12 Nordeste 0 -- -- 93
2019-06-29 23:00:00 17.3 5 Nordeste 13 Norte 0 -- -- 92
2019-06-29 22:00:00 18 6 Nordeste 12 Nordeste 0 -- -- 89
2019-06-29 21:00:00 18.6 0 Calma 10 Nordeste 0 -- -- 87
2019-06-29 20:00:00 18.8 3 Norte 15 Norte 0 -- -- 86
2019-06-29 19:00:00 19.6 5 Norte 18 Este 0 -- -- 83
2019-06-29 18:00:00 19.7 9 Nordeste 20 Norte 0 -- -- 83
2019-06-29 17:00:00 20.9 10 Nordeste 20 Nordeste 0 -- -- 80
2019-06-29 16:00:00 21.2 7 Nordeste 20 Norte 0 -- -- 80
2019-06-29 15:00:00 21.5 6 Nordeste 18 Norte 0 -- -- 80
2019-06-29 14:00:00 20.9 8 Nordeste 19 Norte 0 -- -- 82
2019-06-29 13:00:00 21.9 7 Norte 17 Nordeste 0 -- -- 80
2019-06-29 12:00:00 21.6 3 Norte 13 Oeste 0 -- -- 80
2019-06-29 11:00:00 20 3 Oeste 8 Oeste 0 -- -- 86
2019-06-29 10:00:00 18.6 4 Oeste 7 Sudoeste 0 -- -- 92
2019-06-29 09:00:00 17.5 2 Norte 4 Norte 0 -- -- 96
2019-06-29 08:00:00 17 0 Calma 4 Norte 0 -- -- 97
2019-06-29 07:00:00 16.9 2 Norte 4 Norte 0 -- -- 97
2019-06-29 06:00:00 17 0 Calma 3 Norte 0 -- -- 96
2019-06-29 05:00:00 17.1 0 Calma 2 Nordeste 0 -- -- 95
2019-06-29 04:00:00 17.1 0 Calma 5 Nordeste 0 -- -- 94
2019-06-29 03:00:00 17.1 2 Norte 8 Nordeste 0 -- -- 93
2019-06-29 02:00:00 17.7 0 Calma 5 Nordeste 0 -- -- 90
2019-06-29 01:00:00 17.5 2 Nordeste 5 Nordeste 0 -- -- 91
2019-06-29 00:00:00 17.4 3 Nordeste 9 Norte 0 -- -- 92
2019-06-28 23:00:00 17.6 4 Nordeste 13 Norte 0 -- -- 91
2019-06-28 22:00:00 18 6 Nordeste 18 Norte 0 -- -- 87
2019-06-28 21:00:00 18.9 8 Nordeste 20 Nordeste 0 -- -- 87
2019-06-28 20:00:00 20.9 8 Nordeste 15 Norte 0 -- -- 79
2019-06-28 19:00:00 21.6 8 Nordeste 19 Nordeste 0 -- -- 76
2019-06-28 18:00:00 21.8 11 Nordeste 19 Nordeste 0 -- -- 73
2019-06-28 17:00:00 23.1 9 Norte 22 Norte 0 -- -- 73
2019-06-28 16:00:00 23.3 11 Norte 23 Norte 0 -- -- 73
2019-06-28 15:00:00 24.9 10 Nordeste 18 Nordeste 0 -- -- 68
2019-06-28 14:00:00 25.3 10 Este 19 Este 0 -- -- 68
2019-06-28 13:00:00 24.6 9 Este 21 Este 0 -- -- 65
2019-06-28 12:00:00 23.6 9 Este 22 Sudeste 0 -- -- 68
2019-06-28 11:00:00 22.6 10 Este 20 Este 0 -- -- 70
2019-06-28 10:00:00 19.7 5 Sudeste 11 Sudeste 0 -- -- 82
2019-06-28 09:00:00 18.3 0 Calma 3 Oeste 0 -- -- 90
2019-06-28 08:00:00 17.7 0 Calma -- -- 0 -- -- 92
2019-06-28 07:00:00 17.6 0 Calma 2 Oeste 0 -- -- 91
2019-06-28 06:00:00 17.7 0 Calma 2 Noroeste 0 -- -- 91
2019-06-28 05:00:00 17.8 0 Calma 2 Noroeste 0 -- -- 89
2019-06-28 04:00:00 17.9 0 Calma 4 Noroeste 0 -- -- 88
2019-06-28 03:00:00 18.1 0 Calma 2 Noroeste 0 -- -- 86
2019-06-28 02:00:00 18.3 2 Noroeste 3 Noroeste 0 -- -- 85
2019-06-28 01:00:00 18.6 0 Calma 4 Noroeste 0 -- -- 84
2019-06-28 00:00:00 18.8 0 Calma 5 Noroeste 0 -- -- 83
2019-06-27 23:00:00 18.6 0 Calma 5 Noroeste 0 -- -- 82
2019-06-27 22:00:00 19.6 0 Calma 9 Noroeste 0 -- -- 79
2019-06-27 21:00:00 21.8 3 Noroeste 24 Noroeste 0 -- -- 68
2019-06-27 20:00:00 23.5 9 Noroeste 29 Oeste 0 -- -- 63
2019-06-27 19:00:00 24.3 12 Oeste 28 Oeste 0 -- -- 65
2019-06-27 18:00:00 24.4 6 Norte 19 Norte 0 -- -- 67
2019-06-27 17:00:00 24.8 5 Norte 22 Nordeste 0 -- -- 67
2019-06-27 16:00:00 25.3 8 Nordeste 18 Nordeste 0 -- -- 68
2019-06-27 15:00:00 25.3 11 Nordeste 20 Nordeste 0 -- -- 70
2019-06-27 14:00:00 25.6 8 Nordeste 19 Norte 0 -- -- 73
2019-06-27 13:00:00 25.1 5 Sudoeste 10 Sur 0 -- -- 67
2019-06-27 12:00:00 23.6 4 Este 9 Este 0 -- -- 67
2019-06-27 11:00:00 21.7 4 Sudeste 8 Sudeste 0 -- -- 72
2019-06-27 10:00:00 19.7 3 Sudeste 6 Este 0 -- -- 83
2019-06-27 09:00:00 17.5 0 Calma 5 Nordeste 0 -- -- 91
2019-06-27 08:00:00 15 0 Calma 2 Nordeste 0 -- -- 98
2019-06-27 07:00:00 14.3 0 Calma 2 Norte 0 -- -- 98
2019-06-27 06:00:00 14.5 0 Calma 4 Norte 0 -- -- 97
2019-06-27 05:00:00 14.9 0 Calma 2 Nordeste 0 -- -- 97
2019-06-27 04:00:00 15.4 0 Calma 3 Norte 0 -- -- 95
2019-06-27 03:00:00 16.1 2 Nordeste 4 Nordeste 0 -- -- 93
2019-06-27 02:00:00 16.5 2 Nordeste 4 Nordeste 0 -- -- 94
2019-06-27 01:00:00 17.2 0 Calma 3 Nordeste 0 -- -- 93
2019-06-27 00:00:00 17.9 0 Calma 4 Norte 0 -- -- 91
2019-06-26 23:00:00 19 0 Calma 4 Norte 0 -- -- 88
2019-06-26 22:00:00 19.4 0 Calma 17 Nordeste 0 -- -- 86
2019-06-26 21:00:00 20.2 6 Norte 15 Norte 0 -- -- 82
2019-06-26 20:00:00 22.9 4 Norte 16 Norte 0 -- -- 73
2019-06-26 19:00:00 25 7 Nordeste 19 Norte 0 -- -- 69
2019-06-26 18:00:00 24.4 12 Nordeste 25 Norte 0 -- -- 77
2019-06-26 17:00:00 25.8 10 Norte 27 Nordeste 0 -- -- 77
2019-06-26 16:00:00 27.8 10 Nordeste 26 Nordeste 0 -- -- 75
2019-06-26 15:00:00 28.5 3 Sudoeste 7 Sudeste 0 -- -- 70
2019-06-26 14:00:00 25.9 4 Sur 9 Sur 0 -- -- 75
2019-06-26 13:00:00 23.4 3 Sudoeste 9 Sur 0 -- -- 79
2019-06-26 12:00:00 21.3 3 Sudoeste 8 Este 0 -- -- 85
2019-06-26 11:00:00 19.2 4 Sudeste 9 Este 0 -- -- 93
2019-06-26 10:00:00 17.3 0 Calma 8 Este 0 -- -- 100
2019-06-26 09:00:00 16.5 4 Sudeste 12 Sudeste 0 -- -- 100
2019-06-26 08:00:00 16.3 3 Este 5 Este 0.2 -- -- 100
2019-06-26 07:00:00 16.2 4 Este 9 Nordeste 0 -- -- 100
2019-06-26 06:00:00 16.2 5 Este 8 Este 0.2 -- -- 100
2019-06-26 05:00:00 16.1 0 Calma 5 Nordeste 0 -- -- 100
2019-06-26 04:00:00 16.1 0 Calma 5 Este 0.2 -- -- 100
2019-06-26 03:00:00 16.1 3 Este 10 Nordeste 0 -- -- 100
2019-06-26 02:00:00 16.2 4 Nordeste 8 Nordeste 0.2 -- -- 100
2019-06-26 01:00:00 16.4 4 Norte 8 Norte 0 -- -- 99
2019-06-26 00:00:00 16.7 3 Nordeste 6 Norte 0 -- -- 98
2019-06-25 23:00:00 16.8 4 Nordeste 9 Nordeste 0 -- -- 98
2019-06-25 22:00:00 16.8 4 Norte 10 Norte 0 -- -- 98
2019-06-25 21:00:00 17.4 3 Nordeste 10 Norte 0 -- -- 96
2019-06-25 20:00:00 18 2 Nordeste 14 Nordeste 0 -- -- 94
2019-06-25 19:00:00 18 6 Nordeste 15 Nordeste 0 -- -- 94
2019-06-25 18:00:00 18.2 7 Nordeste 14 Norte 0 -- -- 93
2019-06-25 17:00:00 19 5 Este 17 Nordeste 0 -- -- 93
2019-06-25 16:00:00 18.7 4 Este 12 Nordeste 0.6 -- -- 93
2019-06-25 15:00:00 18.5 8 Nordeste 14 Nordeste 0 -- -- 91
2019-06-25 14:00:00 18.7 7 Nordeste 17 Nordeste 0 -- -- 90
2019-06-25 13:00:00 18.2 6 Nordeste 14 Nordeste 0 -- -- 92
2019-06-25 12:00:00 18.2 4 Nordeste 12 Este 0 -- -- 92
2019-06-25 11:00:00 17.6 4 Este 11 Este 0 -- -- 95
2019-06-25 10:00:00 16.1 6 Sudeste 10 Sudeste 0 -- -- 100
2019-06-25 09:00:00 15.8 4 Este 9 Este 0 -- -- 100
2019-06-25 08:00:00 15.3 0 Calma 2 Oeste 0 -- -- 100
2019-06-25 07:00:00 15.3 0 Calma 0 Calma 0 -- -- 100
2019-06-25 06:00:00 15.3 0 Calma 6 Oeste 0 -- -- 100
2019-06-25 05:00:00 15.3 0 Calma 3 Este 0 -- -- 100
2019-06-25 04:00:00 15.2 0 Calma 3 Este 0 -- -- 100
2019-06-25 03:00:00 15.1 0 Calma 4 Este 0 -- -- 100
2019-06-25 02:00:00 15.1 2 Este 6 Este 0 -- -- 100
2019-06-25 01:00:00 15 0 Calma 3 Este 0 -- -- 99
2019-06-25 00:00:00 15.5 2 Sudeste 11 Este 0 -- -- 99
2019-06-24 23:00:00 15.5 5 Este 11 Este 0.4 -- -- 99
2019-06-24 22:00:00 15.7 6 Este 18 Este 1.8 -- -- 98
2019-06-24 21:00:00 15.9 4 Sudeste 17 Este 1.4 -- -- 97
2019-06-24 20:00:00 16.3 5 Este 18 Este 1.6 -- -- 98
2019-06-24 19:00:00 16.8 7 Este 16 Este 3.2 -- -- 98
2019-06-24 18:00:00 17.2 3 Este 11 Nordeste 1.4 -- -- 97
2019-06-24 17:00:00 17.6 0 Calma 5 Sudoeste 0.8 -- -- 96
2019-06-24 16:00:00 17.5 2 Sudoeste 5 Oeste 1.2 -- -- 96
2019-06-24 15:00:00 17.4 0 Calma 6 Oeste 1.6 -- -- 95
2019-06-24 14:00:00 17.3 4 Noroeste 10 Oeste 0.2 -- -- 93
2019-06-24 13:00:00 17.5 5 Oeste 10 Oeste 0.2 -- -- 94
2019-06-24 12:00:00 17.1 0 Calma 10 Oeste 0.2 -- -- 93
2019-06-24 11:00:00 16.4 4 Sudeste 14 Este 0 -- -- 95
2019-06-24 10:00:00 15.9 8 Este 22 Este 0 -- -- 98
2019-06-24 09:00:00 15.3 9 Este 23 Este 0 -- -- 99
2019-06-24 08:00:00 15 3 Sudeste 7 Sur 0 -- -- 99
2019-06-24 07:00:00 14.9 0 Calma 9 Sudoeste 0 -- -- 99
2019-06-24 06:00:00 14.9 0 Calma 6 Nordeste 0 -- -- 99
2019-06-24 05:00:00 15 0 Calma 5 Este 0 -- -- 98
2019-06-24 04:00:00 15.2 0 Calma 7 Este 0.2 -- -- 98
2019-06-24 03:00:00 15.5 2 Nordeste 13 Este 0.4 -- -- 96
2019-06-24 02:00:00 15.4 5 Este 19 Sudeste 1.2 -- -- 96
2019-06-24 01:00:00 15.6 8 Este 19 Este 0.2 -- -- 95
2019-06-24 00:00:00 15.7 2 Nordeste 21 Este 0.4 -- -- 94
2019-06-23 23:00:00 16 4 Este 23 Nordeste 0 -- -- 92
2019-06-23 22:00:00 16.6 4 Norte 14 Nordeste 0.6 -- -- 91
2019-06-23 21:00:00 17.5 3 Norte 19 Norte 0 -- -- 83
2019-06-23 20:00:00 18.5 10 Norte 26 Norte 0 -- -- 79
2019-06-23 19:00:00 22.2 6 Norte 18 Sudeste 0 -- -- 72
2019-06-23 18:00:00 21.7 8 Este 23 Este 0 -- -- 72
2019-06-23 17:00:00 19.1 4 Sudeste 23 Nordeste 0.6 -- -- 86
2019-06-23 16:00:00 21.7 6 Norte 23 Este 0 -- -- 76
2019-06-23 15:00:00 23.4 6 Este 19 Nordeste 0 -- -- 63
2019-06-23 14:00:00 20.9 3 Sudoeste 9 Noroeste 0 -- -- 75
2019-06-23 13:00:00 19.4 4 Norte 12 Nordeste 0 -- -- 81
2019-06-23 12:00:00 19.3 6 Norte 16 Norte 0 -- -- 79
2019-06-23 11:00:00 17.9 6 Este 15 Este 0 -- -- 81
2019-06-23 10:00:00 18.4 3 Este 17 Este 0 -- -- 82
2019-06-23 09:00:00 16.8 7 Este 13 Este 0 -- -- 85
2019-06-23 08:00:00 16.2 2 Nordeste 9 Nordeste 0 -- -- 89
2019-06-23 07:00:00 15.9 0 Calma 6 Oeste 0 -- -- 89
2019-06-23 06:00:00 16.8 3 Oeste 14 Norte 0 -- -- 85
2019-06-23 05:00:00 16.3 4 Norte 12 Este 0 -- -- 89
2019-06-23 04:00:00 16.1 0 Calma 5 Sudoeste 0 -- -- 90
2019-06-23 03:00:00 16.3 0 Calma 5 Sudoeste 0 -- -- 89
2019-06-23 02:00:00 16.7 0 Calma 4 Noroeste 0 -- -- 86
2019-06-23 01:00:00 17 0 Calma 4 Norte 0 -- -- 81
2019-06-23 00:00:00 17.4 2 Norte 5 Noroeste 0 -- -- 79
2019-06-22 23:00:00 18.8 3 Noroeste 14 Noroeste 0 -- -- 75
2019-06-22 22:00:00 20.2 4 Oeste 17 Oeste 0 -- -- 74
2019-06-22 21:00:00 23 6 Nordeste 13 Norte 0 -- -- 61
2019-06-22 20:00:00 25.3 5 Este 18 Nordeste 0 -- -- 45
2019-06-22 19:00:00 27.4 6 Este 18 Este 0 -- -- 43
2019-06-22 18:00:00 28.8 7 Este 17 Nordeste 0 -- -- 50
2019-06-22 17:00:00 29.5 4 Este 15 Este 0 -- -- 41
2019-06-22 16:00:00 28.7 8 Este 17 Este 0 -- -- 43
2019-06-22 15:00:00 26.6 7 Este 15 Este 0 -- -- 52
2019-06-22 14:00:00 25.5 7 Este 17 Este 0 -- -- 59
2019-06-22 13:00:00 23 6 Sur 13 Sudeste 0 -- -- 67
2019-06-22 12:00:00 21.4 5 Sudeste 10 Sur 0 -- -- 72
2019-06-22 11:00:00 19.2 5 Sur 10 Sur 0 -- -- 81
2019-06-22 10:00:00 16.2 3 Sur 9 Sur 0 -- -- 88
2019-06-22 09:00:00 12.7 0 Calma 7 Sudoeste 0 -- -- 98
2019-06-22 08:00:00 12.1 3 Nordeste 5 Sudoeste 0 -- -- 100
2019-06-22 07:00:00 11.3 0 Calma 5 Este 0 -- -- 99
2019-06-22 06:00:00 11.7 0 Calma 8 Este 0 -- -- 97
2019-06-22 05:00:00 12.4 4 Este 12 Este 0 -- -- 96
2019-06-22 04:00:00 13.1 4 Este 13 Este 0 -- -- 94
2019-06-22 03:00:00 13.5 4 Este 12 Este 0 -- -- 93
2019-06-22 02:00:00 13.6 7 Este 14 Este 0 -- -- 93
2019-06-22 01:00:00 13.8 0 Calma 8 Sudeste 0 -- -- 92
2019-06-22 00:00:00 14 3 Este 11 Este 0 -- -- 91
2019-06-21 23:00:00 14.2 6 Este 15 Sudeste 0 -- -- 90
2019-06-21 22:00:00 14.6 4 Este 12 Este 0 -- -- 89
2019-06-21 21:00:00 14.9 5 Este 18 Este 0 -- -- 88
2019-06-21 20:00:00 15.5 8 Sudeste 19 Este 0 -- -- 83
2019-06-21 19:00:00 16.4 7 Nordeste 13 Nordeste 0 -- -- 83
2019-06-21 18:00:00 16.9 5 Nordeste 17 Este 0 -- -- 82
2019-06-21 17:00:00 16.6 7 Nordeste 14 Este 0 -- -- 83
2019-06-21 16:00:00 17.4 8 Este 20 Norte 0 -- -- 81
2019-06-21 15:00:00 17.4 8 Nordeste 15 Nordeste 0 -- -- 81
2019-06-21 14:00:00 17.1 6 Este 15 Nordeste 0 -- -- 81
2019-06-21 13:00:00 16.7 8 Sudeste 16 Sur 0 -- -- 83
2019-06-21 12:00:00 15 3 Sur 9 Sur 0 -- -- 89
2019-06-21 11:00:00 13.2 2 Noroeste 5 Noroeste 0 -- -- 94
2019-06-21 10:00:00 12.6 2 Nordeste 22 Nordeste 0.2 -- -- 95
2019-06-21 09:00:00 12.3 10 Nordeste 26 Nordeste 0.2 -- -- 96
2019-06-21 08:00:00 12.7 10 Nordeste 23 Este 1 -- -- 99
2019-06-21 07:00:00 12.9 0 Calma 3 Oeste 4 -- -- 100
2019-06-21 06:00:00 12.9 3 Oeste 6 Sudoeste 5 -- -- 100
2019-06-21 05:00:00 13.1 0 Calma 5 Oeste 1.2 -- -- 100
2019-06-21 04:00:00 13.1 3 Noroeste 6 Norte 1.4 -- -- 100
2019-06-21 03:00:00 13.3 0 Calma 4 Norte 1 -- -- 100
2019-06-21 02:00:00 13.3 0 Calma 3 Norte 0.4 -- -- 100
2019-06-21 01:00:00 13.3 0 Calma 3 Nordeste 0 -- -- 99
2019-06-21 00:00:00 13.3 0 Calma 3 Nordeste 0.6 -- -- 99
2019-06-20 23:00:00 13.5 0 Calma 4 Nordeste 1 -- -- 98
2019-06-20 22:00:00 13.6 0 Calma 4 Nordeste 1 -- -- 97
2019-06-20 21:00:00 14 0 Calma 9 Norte 0.2 -- -- 97
2019-06-20 20:00:00 14.1 3 Nordeste 12 Este 0.4 -- -- 95
2019-06-20 19:00:00 14.9 2 Sudeste 11 Nordeste 0.4 -- -- 95
2019-06-20 18:00:00 14.9 6 Este 12 Nordeste 0 -- -- 93
2019-06-20 17:00:00 14.8 5 Este 13 Nordeste 0.2 -- -- 95
2019-06-20 16:00:00 14.8 5 Nordeste 14 Nordeste 0 -- -- 94
2019-06-20 15:00:00 15.1 7 Nordeste 15 Nordeste 0 -- -- 91
2019-06-20 14:00:00 15.2 3 Este 13 Nordeste 0 -- -- 92
2019-06-20 13:00:00 15 8 Nordeste 18 Este 0 -- -- 92
2019-06-20 12:00:00 14.9 4 Nordeste 11 Nordeste 0 -- -- 95
2019-06-20 11:00:00 14.8 3 Nordeste 12 Norte 0 -- -- 96
2019-06-20 10:00:00 14.5 0 Calma 3 Nordeste 0 -- -- 98
2019-06-20 09:00:00 14 0 Calma 3 Norte 0 -- -- 98
2019-06-20 08:00:00 13.8 0 Calma 4 Norte 0 -- -- 98
2019-06-20 07:00:00 13.7 0 Calma 8 Norte 0.6 -- -- 98
2019-06-20 06:00:00 14.2 0 Calma 2 Noroeste 0 -- -- 98
2019-06-20 05:00:00 14.3 0 Calma 2 Noroeste 0 -- -- 98
2019-06-20 04:00:00 14.3 0 Calma 2 Norte 0 -- -- 98
2019-06-20 03:00:00 14.4 0 Calma 3 Noroeste 0 -- -- 98
2019-06-20 02:00:00 14.5 0 Calma 3 Noroeste 0 -- -- 97
2019-06-20 01:00:00 14.5 0 Calma 2 Noroeste 0 -- -- 98
2019-06-20 00:00:00 14.6 2 Noroeste 4 Nordeste 0 -- -- 97
2019-06-19 23:00:00 14.7 0 Calma 7 Nordeste 0.2 -- -- 96
2019-06-19 22:00:00 15.1 0 Calma 5 Norte 0.4 -- -- 95
2019-06-19 21:00:00 15.6 2 Norte 7 Nordeste 0.2 -- -- 93
2019-06-19 20:00:00 16.3 4 Nordeste 12 Nordeste 0 -- -- 86
2019-06-19 19:00:00 16.7 6 Nordeste 17 Nordeste 0 -- -- 84
2019-06-19 18:00:00 17.3 -- -- -- -- 0 -- -- --
2019-06-19 17:00:00 18.8 8 Nordeste 15 Norte 0 -- -- 79
2019-06-19 16:00:00 18.5 6 Nordeste 18 Norte 0 -- -- 79
2019-06-19 15:00:00 19 7 Nordeste 17 Este 0 -- -- 76
2019-06-19 14:00:00 20.6 -- -- -- -- 0 -- -- 69
2019-06-19 13:00:00 21.4 4 Este 13 Nordeste 0 -- -- 68
2019-06-19 12:00:00 19.5 4 Este 12 Este 0 -- -- 71
2019-06-19 11:00:00 17.5 6 Este 12 Sudeste 0 -- -- 80
2019-06-19 10:00:00 15.5 0 Calma 4 Nordeste 0 -- -- 89
2019-06-19 09:00:00 13.6 0 Calma 4 Nordeste 0 -- -- 94
2019-06-19 08:00:00 12.7 0 Calma 4 Este 0 -- -- 98
2019-06-19 07:00:00 11.5 0 Calma 6 Nordeste 0 -- -- 96
2019-06-19 06:00:00 12.1 -- -- -- -- 0 -- -- --
2019-06-19 05:00:00 12.6 0 Calma 4 Nordeste 0 -- -- 93
2019-06-19 04:00:00 13.4 2 Nordeste 8 Norte 0 -- -- 90
2019-06-19 03:00:00 14.2 -- -- -- -- -- -- -- --
2019-06-19 02:00:00 14.3 -- -- -- -- 0 -- -- 86
2019-06-19 01:00:00 15 0 Calma 5 Este 0 -- -- 82
2019-06-19 00:00:00 15.4 0 Calma 4 Nordeste 0 -- -- 80
2019-06-18 23:00:00 15.7 0 Calma 8 Nordeste 0 -- -- 73
2019-06-18 22:00:00 16.7 2 Norte 6 Nordeste 0 -- -- 71
2019-06-18 21:00:00 18 2 Nordeste 10 Norte 0 -- -- 66
2019-06-18 20:00:00 19 3 Norte 23 Nordeste 0 -- -- 56
2019-06-18 19:00:00 20.8 9 Norte 20 Nordeste 0 -- -- 57
2019-06-18 18:00:00 22.5 8 Nordeste 17 Nordeste 0 -- -- 61
2019-06-18 17:00:00 21.8 6 Nordeste 18 Este 0 -- -- 65
2019-06-18 16:00:00 21.9 10 Nordeste 20 Nordeste 0 -- -- 67
2019-06-18 15:00:00 21.8 5 Norte 18 Nordeste 0 -- -- 69
2019-06-18 14:00:00 22.8 7 Norte 23 Nordeste 0 -- -- 66
2019-06-18 13:00:00 21.1 10 Norte 35 Nordeste 0 -- -- 75
2019-06-18 12:00:00 23.4 5 Noroeste 14 Noroeste 0 -- -- 71
2019-06-18 11:00:00 19.7 2 Sudoeste 8 Oeste 0 -- -- 80
2019-06-18 10:00:00 15.6 2 Sur 6 Oeste 0 -- -- 94
2019-06-18 09:00:00 12.7 0 Calma 5 Sur 0 -- -- 100
2019-06-18 08:00:00 12.1 0 Calma 3 Norte 0 -- -- 100
2019-06-18 07:00:00 11.7 0 Calma 4 Norte 0 -- -- 100
2019-06-18 06:00:00 12.3 0 Calma 4 Oeste 0 -- -- 99
2019-06-18 05:00:00 13.1 2 Noroeste 5 Sudoeste 0 -- -- 98
2019-06-18 04:00:00 13.8 0 Calma 6 Sudeste 0 -- -- 96
2019-06-18 03:00:00 15.2 4 Este 16 Nordeste 0 -- -- 95
2019-06-18 02:00:00 14.6 6 Este 13 Nordeste 0 -- -- 98
2019-06-18 01:00:00 15.1 0 Calma 6 Norte 0 -- -- 96
2019-06-18 00:00:00 15.7 0 Calma 5 Norte 0 -- -- 95
2019-06-17 23:00:00 16 0 Calma 4 Noroeste 0 -- -- 93
2019-06-17 22:00:00 16.7 0 Calma 5 Noroeste 0 -- -- 91
2019-06-17 21:00:00 17.6 0 Calma 8 Noroeste 0 -- -- 87
2019-06-17 20:00:00 17.9 4 Oeste 9 Oeste 0 -- -- 85
2019-06-17 19:00:00 17.5 0 Calma 13 Nordeste 0 -- -- 85
2019-06-17 18:00:00 17 6 Norte 19 Norte 0 -- -- 86
2019-06-17 17:00:00 17.8 8 Norte 21 Norte 0 -- -- 83
2019-06-17 16:00:00 20.9 8 Nordeste 18 Nordeste 0 -- -- 75
2019-06-17 15:00:00 21 4 Noroeste 13 Nordeste 0 -- -- 73
2019-06-17 14:00:00 19.5 5 Noroeste 12 Norte 0 -- -- 77
2019-06-17 13:00:00 17.4 3 Oeste 8 Oeste 0 -- -- 83
2019-06-17 12:00:00 16.2 2 Oeste 6 Sudoeste 0 -- -- 86
2019-06-17 11:00:00 15.1 4 Sudoeste 7 Sudoeste 0 -- -- 91
2019-06-17 10:00:00 14.5 3 Sudoeste 5 Sudoeste 0 -- -- 93
2019-06-17 09:00:00 14.2 3 Sudoeste 5 Sudoeste 0 -- -- 96
2019-06-17 08:00:00 14 0 Calma 5 Este 0 -- -- 97
2019-06-17 07:00:00 13.8 3 Este 8 Este 0 -- -- 97
2019-06-17 06:00:00 13.9 4 Este 9 Nordeste 0 -- -- 98
2019-06-17 05:00:00 13.9 0 Calma 5 Nordeste 0 -- -- 98
2019-06-17 04:00:00 14 0 Calma 5 Nordeste 0 -- -- 98
2019-06-17 03:00:00 14.2 0 Calma 4 Nordeste 0 -- -- 98
2019-06-17 02:00:00 14.1 0 Calma 5 Norte 0 -- -- 98
2019-06-17 01:00:00 14.1 2 Nordeste 7 Norte 0 -- -- 97
2019-06-17 00:00:00 14.3 4 Nordeste 10 Nordeste 0 -- -- 95
2019-06-16 23:00:00 14.6 6 Nordeste 10 Norte 0 -- -- 94
2019-06-16 22:00:00 14.9 5 Nordeste 14 Norte 0 -- -- 93
2019-06-16 21:00:00 15.2 7 Norte 22 Norte 0 -- -- 91
2019-06-16 20:00:00 16.8 9 Norte 25 Nordeste 0 -- -- 84
2019-06-16 19:00:00 18.9 12 Nordeste 19 Nordeste 0 -- -- 78
2019-06-16 18:00:00 20.5 8 Nordeste 15 Nordeste 0 -- -- 73
2019-06-16 17:00:00 20.7 9 Nordeste 19 Nordeste 0 -- -- 73
2019-06-16 16:00:00 20.6 10 Nordeste 20 Nordeste 0 -- -- 73
2019-06-16 15:00:00 20.6 9 Nordeste 19 Norte 0 -- -- 69
2019-06-16 14:00:00 20.8 5 Sudeste 17 Nordeste 0 -- -- 64
2019-06-16 13:00:00 20.2 6 Nordeste 15 Sudeste 0 -- -- 64
2019-06-16 12:00:00 18.7 8 Sur 18 Sudeste 0 -- -- 64
2019-06-16 11:00:00 17.1 7 Este 18 Sudeste 0 -- -- 61
2019-06-16 10:00:00 14.7 3 Sur 5 Sur 0 -- -- 80
2019-06-16 09:00:00 11.5 0 Calma 3 Sur 0 -- -- 90
2019-06-16 08:00:00 8.7 0 Calma 0 Calma 0 -- -- 96
2019-06-16 07:00:00 7.7 0 Calma 0 Calma 0 -- -- 96
2019-06-16 06:00:00 8.5 0 Calma 2 Nordeste 0 -- -- 95
2019-06-16 05:00:00 9.2 0 Calma 2 Este 0 -- -- 93
2019-06-16 04:00:00 9.9 0 Calma 2 Este 0 -- -- 91
2019-06-16 03:00:00 11.3 0 Calma 5 Este 0 -- -- 82
2019-06-16 02:00:00 12.5 4 Este 7 Este 0 -- -- 79
2019-06-16 01:00:00 12.7 3 Nordeste 6 Nordeste 0 -- -- 80
2019-06-16 00:00:00 13 0 Calma 6 Este 0 -- -- 79